createdAt,value
2019-04-13T15:55:50.446Z,11.26
2019-04-13T16:01:13.117Z,11.32
2019-04-13T16:06:35.884Z,11.38
2019-04-13T16:12:05.459Z,11.44
2019-04-13T16:17:25.404Z,11.51
2019-04-13T16:22:47.348Z,11.61
2019-04-13T16:28:28.668Z,11.63
2019-04-13T16:34:15.869Z,11.36
2019-04-13T16:39:39.046Z,11.49
2019-04-13T16:45:19.601Z,11.46
2019-04-13T16:50:55.344Z,11.43
2019-04-13T16:56:23.111Z,11.37
2019-04-13T17:01:56.920Z,11.27
2019-04-13T17:07:19.759Z,11.19
2019-04-13T17:12:44.724Z,11.21
2019-04-13T17:18:10.438Z,11.10
2019-04-13T17:23:52.161Z,11.07
2019-04-13T17:29:25.242Z,10.99
2019-04-13T17:34:57.623Z,10.94
2019-04-13T17:40:24.052Z,10.83
2019-04-13T17:45:59.103Z,10.80
2019-04-13T17:51:39.638Z,10.75
2019-04-13T17:57:01.345Z,10.72
2019-04-13T18:02:42.574Z,10.63
2019-04-13T18:08:34.742Z,10.63
2019-04-13T18:14:11.004Z,10.41
2019-04-13T18:19:33.496Z,10.21
2019-04-13T18:24:55.527Z,10.12
2019-04-13T18:30:25.789Z,10.17
2019-04-13T18:35:45.518Z,10.23
2019-04-13T18:41:05.945Z,10.23
2019-04-13T18:46:27.935Z,10.17
2019-04-13T18:51:50.723Z,10.17
2019-04-13T18:57:13.246Z,10.10
2019-04-13T19:02:35.659Z,10.07
2019-04-13T19:07:57.814Z,10.09
2019-04-13T19:13:19.391Z,10.11
2019-04-13T19:18:41.454Z,10.05
2019-04-13T19:24:03.610Z,10.13
2019-04-13T19:29:25.227Z,10.12
2019-04-13T19:34:46.864Z,10.10
2019-04-13T19:40:08.728Z,10.10
2019-04-13T19:45:30.796Z,10.05
2019-04-13T19:50:52.747Z,10.08
2019-04-13T19:56:16.354Z,10.12
2019-04-13T20:01:38.208Z,10.04
2019-04-13T20:06:59.876Z,10.06
2019-04-13T20:12:21.774Z,10.01
2019-04-13T20:17:43.623Z,10.06
2019-04-13T20:23:05.201Z,9.99
2019-04-13T20:28:27.003Z,10.05
2019-04-13T20:33:48.964Z,9.96
2019-04-13T20:39:11.430Z,9.83
2019-04-13T20:44:33.051Z,9.76
2019-04-13T20:49:54.806Z,9.56
2019-04-13T20:55:17.678Z,9.48
2019-04-13T21:00:39.932Z,9.47
2019-04-13T21:06:02.327Z,9.54
2019-04-13T21:11:24.337Z,9.56
2019-04-13T21:16:47.431Z,9.56
2019-04-13T21:22:09.497Z,9.53
2019-04-13T21:27:31.871Z,9.38
2019-04-13T21:32:55.356Z,9.17
2019-04-13T21:38:17.615Z,8.90
2019-04-13T21:43:39.304Z,8.80
2019-04-13T21:49:01.214Z,8.83
2019-04-13T21:54:28.017Z,8.83
2019-04-13T21:59:49.969Z,8.74
2019-04-13T22:05:13.828Z,8.79
2019-04-13T22:10:35.907Z,8.76
2019-04-13T22:15:57.555Z,8.68
2019-04-13T22:21:19.842Z,8.68
2019-04-13T22:26:41.517Z,8.71
2019-04-13T22:32:38.597Z,8.73
2019-04-13T22:38:00.789Z,8.73
2019-04-13T22:43:22.526Z,8.69
2019-04-13T22:48:54.097Z,8.62
2019-04-13T22:54:26.399Z,8.56
2019-04-13T22:59:48.710Z,8.56
2019-04-13T23:05:11.184Z,8.57
2019-04-13T23:10:33.325Z,8.59
2019-04-13T23:15:55.659Z,8.61
2019-04-13T23:21:17.982Z,8.49
2019-04-13T23:26:40.909Z,8.57
2019-04-13T23:32:02.999Z,8.65
2019-04-13T23:37:25.511Z,8.67
2019-04-13T23:42:48.503Z,8.62
2019-04-13T23:48:11.128Z,8.61
2019-04-13T23:53:33.644Z,8.64
2019-04-13T23:59:06.988Z,8.66
